Time;durP1;ratioP1;P1;durP2;ratioP2;P2;SDS_P1;SDS_P2;PMS_P1;PMS_P2;Temp;Humidity;BMP_temperature;BMP_pressure;BME280_temperature;BME280_humidity;BME280_pressure;Samples;Min_cycle;Max_cycle;Signal;HPM_P1;HPM_P2
2024/01/14 00:00:03;;;;;;;1999.90;999.90;;;5.10;99.90;;;;;;5086945;28;20043;-69
2024/01/14 00:02:28;;;;;;;1999.90;999.90;;;5.10;99.90;;;;;;5079397;28;20027;-70
2024/01/14 00:04:54;;;;;;;1999.90;999.90;;;5.10;99.90;;;;;;5091576;28;20398;-69
2024/01/14 00:07:20;;;;;;;1999.90;999.90;;;5.10;99.90;;;;;;5090547;28;20661;-70
2024/01/14 00:09:46;;;;;;;1999.90;999.90;;;5.10;99.90;;;;;;5075023;28;20034;-69
2024/01/14 00:12:12;;;;;;;1999.90;999.90;;;5.10;99.90;;;;;;5070577;28;20111;-68
2024/01/14 00:14:37;;;;;;;1999.90;999.90;;;5.10;99.90;;;;;;5085627;28;20089;-70
2024/01/14 00:17:03;;;;;;;1999.90;999.90;;;5.00;99.90;;;;;;5079553;28;20028;-68
2024/01/14 00:19:29;;;;;;;1999.90;999.90;;;5.00;99.90;;;;;;5091515;28;20494;-70
2024/01/14 00:21:55;;;;;;;1999.90;999.90;;;5.00;99.90;;;;;;5083757;28;20139;-70
2024/01/14 00:24:20;;;;;;;1999.90;999.90;;;5.00;99.90;;;;;;5089130;28;20061;-70
2024/01/14 00:26:47;;;;;;;1999.90;999.90;;;5.00;99.90;;;;;;5082025;28;20032;-70
2024/01/14 00:29:12;;;;;;;1999.90;999.90;;;5.00;99.90;;;;;;5089431;28;20414;-70
2024/01/14 00:31:38;;;;;;;1999.90;999.90;;;4.90;99.90;;;;;;5081827;28;20051;-70
2024/01/14 00:34:04;;;;;;;1999.90;999.90;;;4.90;99.90;;;;;;5091438;28;20028;-70
2024/01/14 00:36:29;;;;;;;1999.90;999.90;;;4.80;99.90;;;;;;5086122;28;20029;-70
2024/01/14 00:38:55;;;;;;;1999.90;999.90;;;4.80;99.90;;;;;;5061144;28;20065;-69
2024/01/14 00:41:21;;;;;;;1999.90;999.90;;;4.80;99.90;;;;;;5088488;28;20044;-70
2024/01/14 00:43:47;;;;;;;1999.90;999.90;;;4.80;99.90;;;;;;5084556;28;20414;-70
2024/01/14 00:46:12;;;;;;;1999.90;999.90;;;4.80;99.90;;;;;;5088877;28;20032;-70
2024/01/14 00:48:38;;;;;;;1999.90;999.90;;;4.70;99.90;;;;;;5082271;28;20149;-68
2024/01/14 00:51:05;;;;;;;1999.90;999.90;;;4.60;99.90;;;;;;5088119;28;20075;-69
2024/01/14 00:53:30;;;;;;;1999.90;999.90;;;4.60;99.90;;;;;;5080339;28;20078;-68
2024/01/14 00:55:56;;;;;;;1999.90;999.90;;;4.50;99.90;;;;;;5084379;28;20437;-70
2024/01/14 00:58:22;;;;;;;1999.90;999.90;;;4.40;99.90;;;;;;5080923;28;20016;-68
2024/01/14 01:00:48;;;;;;;1999.90;999.90;;;4.50;99.90;;;;;;5085813;28;20115;-69
2024/01/14 01:03:13;;;;;;;1999.90;999.90;;;4.60;99.90;;;;;;5086683;28;20117;-68
2024/01/14 01:05:39;;;;;;;1999.90;999.90;;;4.70;99.90;;;;;;5067880;28;20051;-70
2024/01/14 01:08:05;;;;;;;1999.90;999.90;;;4.70;99.90;;;;;;5090484;28;20410;-69
2024/01/14 01:10:31;;;;;;;1999.90;999.90;;;4.70;99.90;;;;;;5093359;28;20020;-68
2024/01/14 01:12:57;;;;;;;1999.90;999.90;;;4.70;99.90;;;;;;5094675;28;20445;-70
2024/01/14 01:15:22;;;;;;;1999.90;999.90;;;4.70;99.90;;;;;;5095259;28;20016;-70
2024/01/14 01:17:48;;;;;;;1999.90;999.90;;;4.70;99.90;;;;;;5094396;28;20106;-70
2024/01/14 01:20:14;;;;;;;1999.90;999.90;;;4.60;99.90;;;;;;5076187;28;20024;-70
2024/01/14 01:22:40;;;;;;;1999.90;999.90;;;4.70;99.90;;;;;;5094519;28;20060;-69
2024/01/14 01:25:06;;;;;;;1999.90;999.90;;;4.70;99.90;;;;;;5094084;28;20310;-69
2024/01/14 01:27:32;;;;;;;1999.90;999.90;;;4.80;99.90;;;;;;5065944;28;20406;-70
2024/01/14 01:29:57;;;;;;;1999.90;999.90;;;4.80;99.90;;;;;;5089447;28;20024;-70
2024/01/14 01:32:23;;;;;;;1999.90;999.90;;;4.70;99.90;;;;;;5088842;28;20439;-70
2024/01/14 01:34:49;;;;;;;1999.90;999.90;;;4.60;99.90;;;;;;5094887;28;20020;-69
2024/01/14 01:37:15;;;;;;;1999.90;999.90;;;4.50;99.90;;;;;;5076604;28;20028;-70
2024/01/14 01:39:41;;;;;;;1999.90;999.90;;;4.40;99.90;;;;;;5087926;28;20085;-69
2024/01/14 01:42:06;;;;;;;1999.90;999.90;;;4.20;99.90;;;;;;5074962;28;20082;-70
2024/01/14 01:44:35;;;;;;;1999.90;999.90;;;4.10;99.90;;;;;;5079475;28;20032;-70
2024/01/14 01:47:01;;;;;;;1999.90;999.90;;;4.00;99.90;;;;;;5093886;28;20035;-70
2024/01/14 01:49:31;;;;;;;1999.90;999.90;;;3.90;99.90;;;;;;5088436;28;20023;-69
2024/01/14 01:51:59;;;;;;;1999.90;999.90;;;3.90;99.90;;;;;;5085230;28;20401;-69
2024/01/14 01:54:27;;;;;;;1999.90;999.90;;;3.90;99.90;;;;;;5092059;28;20100;-69
2024/01/14 01:56:54;;;;;;;1999.90;999.90;;;4.00;99.90;;;;;;5089997;28;20036;-70
2024/01/14 01:59:20;;;;;;;;;;;4.10;99.90;;;;;;5069118;28;20028;-69
2024/01/14 02:01:47;;;;;;;1999.90;999.90;;;4.20;99.90;;;;;;5090456;28;19935;-69
2024/01/14 02:04:17;;;;;;;1999.90;999.90;;;4.20;99.90;;;;;;5083839;28;20090;-68
2024/01/14 02:06:43;;;;;;;1999.90;999.90;;;4.20;99.90;;;;;;5090460;28;20110;-68
2024/01/14 02:09:09;;;;;;;1999.90;999.90;;;4.30;99.90;;;;;;5092021;28;20328;-70
2024/01/14 02:11:36;;;;;;;1999.90;999.90;;;4.30;99.90;;;;;;5091711;28;20134;-69
2024/01/14 02:14:03;;;;;;;1999.90;999.90;;;4.50;99.90;;;;;;5094268;28;20024;-70
2024/01/14 02:16:29;;;;;;;1999.90;999.90;;;4.50;99.90;;;;;;5079133;28;20036;-70
2024/01/14 02:18:54;;;;;;;1999.90;999.90;;;4.50;99.90;;;;;;5082987;28;20109;-70
2024/01/14 02:21:23;;;;;;;1999.90;999.90;;;4.60;99.90;;;;;;5087510;28;20269;-68
2024/01/14 02:24:05;;;;;;;1999.90;999.90;;;4.60;99.90;;;;;;5084048;28;20034;-68
2024/01/14 02:26:30;;;;;;;1999.90;999.90;;;4.60;99.90;;;;;;5073776;28;20063;-69
2024/01/14 02:28:56;;;;;;;1999.90;999.90;;;4.60;99.90;;;;;;5085529;28;20058;-70
2024/01/14 02:31:22;;;;;;;1999.90;999.90;;;4.50;99.90;;;;;;5090194;28;20496;-70
2024/01/14 02:33:48;;;;;;;1999.90;999.90;;;4.40;99.90;;;;;;5077317;28;20142;-70
2024/01/14 02:36:13;;;;;;;1999.90;999.90;;;4.40;99.90;;;;;;5066941;28;20557;-70
2024/01/14 02:38:39;;;;;;;1999.90;999.90;;;4.40;99.90;;;;;;5085264;28;20032;-69
2024/01/14 02:41:05;;;;;;;1999.90;999.90;;;4.30;99.90;;;;;;5086054;28;20024;-70
2024/01/14 02:43:30;;;;;;;1999.90;999.90;;;4.20;99.90;;;;;;5081650;28;20362;-69
2024/01/14 02:45:56;;;;;;;1999.90;999.90;;;4.30;99.90;;;;;;5089238;28;20034;-68
2024/01/14 02:48:22;;;;;;;1999.90;999.90;;;4.10;99.90;;;;;;5087816;28;21588;-68
2024/01/14 02:50:47;;;;;;;1999.90;999.90;;;4.10;99.90;;;;;;5078089;28;20111;-70
2024/01/14 02:53:13;;;;;;;1999.90;999.90;;;4.00;99.90;;;;;;5089411;28;20024;-68
2024/01/14 02:55:38;;;;;;;1999.90;999.90;;;3.80;99.90;;;;;;5081749;28;20055;-70
2024/01/14 02:58:04;;;;;;;1999.90;999.90;;;3.90;99.90;;;;;;5091576;28;20035;-69
2024/01/14 03:00:30;;;;;;;1999.90;999.90;;;3.80;99.90;;;;;;5089063;28;20024;-70
2024/01/14 03:02:56;;;;;;;1999.90;999.90;;;3.80;99.90;;;;;;5068569;28;20036;-67
2024/01/14 03:05:21;;;;;;;1999.90;999.90;;;3.70;99.90;;;;;;5085997;28;20111;-70
2024/01/14 03:07:47;;;;;;;1999.90;999.90;;;3.60;99.90;;;;;;5089485;28;20034;-70
2024/01/14 03:10:13;;;;;;;1999.90;999.90;;;3.50;99.90;;;;;;5088058;28;20017;-69
2024/01/14 03:12:39;;;;;;;1999.90;999.90;;;3.50;99.90;;;;;;5085557;28;20031;-69
2024/01/14 03:15:05;;;;;;;1999.90;999.90;;;3.40;99.90;;;;;;5083546;28;20029;-70
2024/01/14 03:17:31;;;;;;;1999.90;999.90;;;3.30;99.90;;;;;;5075210;28;20028;-69
2024/01/14 03:19:56;;;;;;;1999.90;999.90;;;3.20;99.90;;;;;;5079557;28;20559;-69
2024/01/14 03:22:22;;;;;;;1999.90;999.90;;;3.00;99.90;;;;;;5087386;28;20055;-69
2024/01/14 03:24:48;;;;;;;1999.90;999.90;;;3.00;99.90;;;;;;5063476;28;20044;-70
2024/01/14 03:27:13;;;;;;;1999.90;999.90;;;2.90;99.90;;;;;;5090450;28;20442;-70
2024/01/14 03:29:39;;;;;;;1999.90;999.90;;;2.90;99.90;;;;;;5087020;28;20028;-69
2024/01/14 03:32:05;;;;;;;1999.90;999.90;;;2.90;99.90;;;;;;5063331;28;20039;-69
2024/01/14 03:34:31;;;;;;;1999.90;999.90;;;2.90;99.90;;;;;;5080229;28;20032;-69
2024/01/14 03:36:56;;;;;;;1999.90;999.90;;;2.90;99.90;;;;;;5081271;28;20036;-69
2024/01/14 03:39:22;;;;;;;1999.90;999.90;;;3.00;99.90;;;;;;5075866;28;20367;-69
2024/01/14 03:41:48;;;;;;;1999.90;999.90;;;3.10;99.90;;;;;;5082323;28;20109;-69
2024/01/14 03:44:14;;;;;;;1999.90;999.90;;;3.10;99.90;;;;;;5073532;28;20066;-69
2024/01/14 03:46:39;;;;;;;1999.90;999.90;;;3.00;99.90;;;;;;5089048;28;20055;-68
2024/01/14 03:49:05;;;;;;;1999.90;999.90;;;3.00;99.90;;;;;;5086574;28;20060;-69
2024/01/14 03:51:31;;;;;;;1999.90;999.90;;;3.00;99.90;;;;;;5074345;28;20023;-68
2024/01/14 03:53:57;;;;;;;1999.90;999.90;;;2.90;99.90;;;;;;5083989;28;20459;-69
2024/01/14 03:56:22;;;;;;;1999.90;999.90;;;2.80;99.90;;;;;;5078576;28;20039;-70
2024/01/14 03:58:48;;;;;;;1999.90;999.90;;;2.70;99.90;;;;;;5080583;28;20039;-69
2024/01/14 04:01:17;;;;;;;1999.90;999.90;;;2.60;99.90;;;;;;5080115;28;20029;-69
2024/01/14 04:03:43;;;;;;;1999.90;999.90;;;2.60;99.90;;;;;;5088693;28;20381;-69
2024/01/14 04:06:09;;;;;;;1999.90;999.90;;;2.50;99.90;;;;;;5083001;28;20032;-69
2024/01/14 04:08:34;;;;;;;1999.90;999.90;;;2.40;99.90;;;;;;5084288;28;20023;-69
2024/01/14 04:11:00;;;;;;;1999.90;999.90;;;2.40;99.90;;;;;;5091553;28;20024;-70
2024/01/14 04:13:26;;;;;;;1999.90;999.90;;;2.40;99.90;;;;;;5084078;28;20027;-69
2024/01/14 04:15:55;;;;;;;1999.90;999.90;;;2.40;99.90;;;;;;5086541;28;20110;-69
2024/01/14 04:18:21;;;;;;;1999.90;999.90;;;2.40;99.90;;;;;;5072764;28;20028;-67
2024/01/14 04:20:46;;;;;;;1999.90;999.90;;;2.40;99.90;;;;;;5085122;28;20024;-69
2024/01/14 04:23:12;;;;;;;1999.90;999.90;;;2.40;99.90;;;;;;5089202;28;20028;-69
2024/01/14 04:25:38;;;;;;;1999.90;999.90;;;2.40;99.90;;;;;;5082892;28;20359;-69
2024/01/14 04:28:04;;;;;;;1999.90;999.90;;;2.40;99.90;;;;;;5082704;28;20032;-69
2024/01/14 04:30:30;;;;;;;1999.90;999.90;;;2.40;99.90;;;;;;5089986;28;20419;-68
2024/01/14 04:32:56;;;;;;;1999.90;999.90;;;2.30;99.90;;;;;;5085942;28;20032;-69
2024/01/14 04:35:21;;;;;;;1999.90;999.90;;;2.30;99.90;;;;;;5076925;28;20037;-70
2024/01/14 04:37:47;;;;;;;1999.90;999.90;;;2.30;99.90;;;;;;5087399;28;20407;-68
2024/01/14 04:40:13;;;;;;;1999.90;999.90;;;2.20;99.90;;;;;;5087218;28;20029;-69
2024/01/14 04:42:38;;;;;;;1999.90;999.90;;;2.20;99.90;;;;;;5087961;28;20097;-69
2024/01/14 04:45:05;;;;;;;1999.90;999.90;;;2.10;99.90;;;;;;5093063;28;20032;-70
2024/01/14 04:47:30;;;;;;;1999.90;999.90;;;2.10;99.90;;;;;;5089773;28;20028;-69
2024/01/14 04:49:56;;;;;;;1999.90;999.90;;;2.10;99.90;;;;;;5085589;28;20039;-69
2024/01/14 04:52:22;;;;;;;1999.90;999.90;;;2.10;99.90;;;;;;5083400;28;20326;-69
2024/01/14 04:54:47;;;;;;;1999.90;999.90;;;2.00;99.90;;;;;;5077427;28;20021;-69
2024/01/14 04:57:13;;;;;;;1999.90;999.90;;;2.00;99.90;;;;;;5090190;28;20024;-69
2024/01/14 04:59:39;;;;;;;1999.90;999.90;;;2.00;99.90;;;;;;5089835;28;20043;-69
2024/01/14 05:02:04;;;;;;;1999.90;999.90;;;1.90;99.90;;;;;;5080392;28;20344;-68
2024/01/14 05:04:30;;;;;;;1999.90;999.90;;;1.90;99.90;;;;;;5090194;28;20039;-69
2024/01/14 05:06:56;;;;;;;1999.90;999.90;;;1.90;99.90;;;;;;5087957;28;20034;-68
2024/01/14 05:09:22;;;;;;;1999.90;999.90;;;1.90;99.90;;;;;;5070699;28;20127;-69
2024/01/14 05:11:48;;;;;;;1999.90;999.90;;;1.90;99.90;;;;;;5088321;28;20024;-69
2024/01/14 05:14:13;;;;;;;1999.90;999.90;;;2.00;99.90;;;;;;5089383;28;20024;-69
2024/01/14 05:16:39;;;;;;;1999.90;999.90;;;2.00;99.90;;;;;;5090846;28;20339;-69
2024/01/14 05:19:05;;;;;;;1999.90;999.90;;;2.00;99.90;;;;;;5093555;28;20028;-70
2024/01/14 05:21:30;;;;;;;1999.90;999.90;;;2.00;99.90;;;;;;5086928;28;20112;-69
2024/01/14 05:23:56;;;;;;;1999.90;999.90;;;2.00;99.90;;;;;;5080322;28;20048;-70
2024/01/14 05:26:24;;;;;;;1999.90;999.90;;;2.00;99.90;;;;;;5089475;28;20029;-69
2024/01/14 05:28:50;;;;;;;1999.90;999.90;;;1.90;99.90;;;;;;5090712;28;20036;-69
2024/01/14 05:31:16;;;;;;;1999.90;999.90;;;2.00;99.90;;;;;;5085090;28;20047;-69
2024/01/14 05:33:42;;;;;;;1999.90;999.90;;;2.00;99.90;;;;;;5093014;28;20330;-69
2024/01/14 05:36:08;;;;;;;1999.90;999.90;;;2.00;99.90;;;;;;5088540;28;20073;-69
2024/01/14 05:38:33;;;;;;;1999.90;999.90;;;2.00;99.90;;;;;;5079054;28;20040;-69
2024/01/14 05:40:59;;;;;;;1999.90;999.90;;;2.00;99.90;;;;;;5088467;28;20016;-69
2024/01/14 05:43:25;;;;;;;1999.90;999.90;;;2.00;99.90;;;;;;5071958;28;20020;-69
2024/01/14 05:45:50;;;;;;;1999.90;999.90;;;2.10;99.90;;;;;;5071521;28;20028;-69
2024/01/14 05:48:17;;;;;;;1999.90;999.90;;;2.10;99.90;;;;;;5058372;28;20036;-69
2024/01/14 05:50:43;;;;;;;1999.90;999.90;;;2.20;99.90;;;;;;5086772;28;20032;-69
2024/01/14 05:53:09;;;;;;;1999.90;999.90;;;2.20;99.90;;;;;;5088724;28;20040;-67
2024/01/14 05:55:34;;;;;;;1999.90;999.90;;;2.20;99.90;;;;;;5078717;28;20119;-67
2024/01/14 05:58:00;;;;;;;1999.90;999.90;;;2.20;99.90;;;;;;5084975;28;20032;-69
2024/01/14 06:00:25;;;;;;;1999.90;999.90;;;2.20;99.90;;;;;;5089685;28;20032;-69
2024/01/14 06:02:51;;;;;;;1999.90;999.90;;;2.10;99.90;;;;;;5083845;28;20041;-68
2024/01/14 06:05:17;;;;;;;1999.90;999.90;;;2.10;99.90;;;;;;5083748;28;20021;-69
2024/01/14 06:07:42;;;;;;;1999.90;999.90;;;2.10;99.90;;;;;;5069728;28;20414;-69
2024/01/14 06:10:09;;;;;;;1999.90;999.90;;;2.10;99.90;;;;;;5086568;28;20406;-69
2024/01/14 06:12:34;;;;;;;1999.90;999.90;;;2.20;99.90;;;;;;5081587;28;20086;-69
2024/01/14 06:15:00;;;;;;;1999.90;999.90;;;2.10;99.90;;;;;;5089814;28;20032;-69
2024/01/14 06:17:26;;;;;;;1999.90;999.90;;;2.10;99.90;;;;;;5072147;28;20478;-67
2024/01/14 06:19:52;;;;;;;1999.90;999.90;;;2.10;99.90;;;;;;5087745;28;20067;-71
2024/01/14 06:22:17;;;;;;;1999.90;999.90;;;2.10;99.90;;;;;;5086794;28;20028;-71
2024/01/14 06:24:46;;;;;;;1999.90;999.90;;;1.90;99.90;;;;;;5084127;28;20029;-72
2024/01/14 06:27:12;;;;;;;1999.90;999.90;;;1.90;99.90;;;;;;5087650;28;20029;-71
2024/01/14 06:29:39;;;;;;;1999.90;999.90;;;1.90;99.90;;;;;;5085873;28;20018;-70
2024/01/14 06:32:05;;;;;;;1999.90;999.90;;;1.90;99.90;;;;;;5089034;28;20040;-71
2024/01/14 06:34:30;;;;;;;1999.90;999.90;;;1.80;99.90;;;;;;5086277;28;20024;-71
2024/01/14 06:36:56;;;;;;;1999.90;999.90;;;1.90;99.90;;;;;;5072934;28;20101;-71
2024/01/14 06:39:22;;;;;;;1999.90;999.90;;;1.80;99.90;;;;;;5087024;28;20426;-71
2024/01/14 06:41:47;;;;;;;1999.90;999.90;;;1.80;99.90;;;;;;5074499;28;20391;-71
2024/01/14 06:44:13;;;;;;;1999.90;999.90;;;1.80;99.90;;;;;;5073218;28;20016;-70
2024/01/14 06:46:45;;;;;;;1999.90;999.90;;;1.80;99.90;;;;;;5089086;28;20461;-71
2024/01/14 06:49:11;;;;;;;1999.90;999.90;;;1.80;99.90;;;;;;5086035;28;20032;-71
2024/01/14 06:51:44;;;;;;;1999.90;999.90;;;1.90;99.90;;;;;;5074927;28;20032;-71
2024/01/14 06:54:09;;;;;;;1999.90;999.90;;;1.90;99.90;;;;;;5071861;28;20020;-71
2024/01/14 06:56:45;;;;;;;1999.90;999.90;;;1.90;99.90;;;;;;5088427;28;20027;-70
2024/01/14 06:59:18;;;;;;;1999.90;999.90;;;1.90;99.90;;;;;;5090926;28;20024;-71
2024/01/14 07:01:44;;;;;;;1999.90;999.90;;;2.00;99.90;;;;;;5093081;28;20119;-71
2024/01/14 07:04:11;;;;;;;1999.90;999.90;;;2.00;99.90;;;;;;5090537;28;20047;-71
2024/01/14 07:06:37;;;;;;;1999.90;999.90;;;1.90;99.90;;;;;;5090844;28;20520;-71
2024/01/14 07:09:04;;;;;;;1999.90;999.90;;;1.90;99.90;;;;;;5073760;28;20026;-71
2024/01/14 07:11:30;;;;;;;1999.90;999.90;;;1.90;99.90;;;;;;5092048;28;20095;-71
2024/01/14 07:13:56;;;;;;;1999.90;999.90;;;1.90;99.90;;;;;;5092520;28;20103;-71
2024/01/14 07:16:22;;;;;;;1999.90;999.90;;;1.90;99.90;;;;;;5083302;28;20036;-71
2024/01/14 07:18:47;;;;;;;1999.90;999.90;;;1.90;99.90;;;;;;5086636;28;20093;-71
2024/01/14 07:21:13;;;;;;;1999.90;999.90;;;2.00;99.90;;;;;;5088179;28;20029;-71
2024/01/14 07:23:39;;;;;;;1999.90;999.90;;;2.00;99.90;;;;;;5079329;28;20056;-71
2024/01/14 07:26:16;;;;;;;1999.90;999.90;;;2.00;99.90;;;;;;5063072;28;20680;-71
2024/01/14 07:28:42;;;;;;;1999.90;999.90;;;2.00;99.90;;;;;;5066493;28;20051;-71
2024/01/14 07:31:07;;;;;;;1999.90;999.90;;;2.00;99.90;;;;;;5084000;28;20048;-71
2024/01/14 07:33:33;;;;;;;1999.90;999.90;;;2.00;99.90;;;;;;5089597;28;20501;-70
2024/01/14 07:35:59;;;;;;;1999.90;999.90;;;2.00;99.90;;;;;;5088587;28;20024;-71
2024/01/14 07:38:24;;;;;;;1999.90;999.90;;;2.10;99.90;;;;;;5080315;28;20645;-71
2024/01/14 07:40:50;;;;;;;1999.90;999.90;;;2.10;99.90;;;;;;5088576;28;20072;-71
2024/01/14 07:43:16;;;;;;;1999.90;999.90;;;2.10;99.90;;;;;;5085375;28;20028;-71
2024/01/14 07:45:41;;;;;;;1999.90;999.90;;;2.10;99.90;;;;;;5092881;28;20081;-71
2024/01/14 07:48:07;;;;;;;1999.90;999.90;;;2.10;99.90;;;;;;5091838;28;20463;-71
2024/01/14 07:50:33;;;;;;;1999.90;999.90;;;2.10;99.90;;;;;;5087693;28;20028;-71
2024/01/14 07:52:59;;;;;;;1999.90;999.90;;;2.00;99.90;;;;;;5061722;28;20038;-71
2024/01/14 07:55:25;;;;;;;1999.90;999.90;;;2.00;99.90;;;;;;5092128;28;20035;-71
2024/01/14 07:57:51;;;;;;;1999.90;999.90;;;2.00;99.90;;;;;;5080421;28;20468;-71
2024/01/14 08:00:17;;;;;;;1999.90;999.90;;;1.90;99.90;;;;;;5087503;28;20696;-72
2024/01/14 08:02:42;;;;;;;1999.90;999.90;;;1.90;99.90;;;;;;5074516;28;20036;-71
2024/01/14 08:05:09;;;;;;;1999.90;999.90;;;2.00;99.90;;;;;;5087402;28;20442;-71
2024/01/14 08:07:34;;;;;;;1999.90;999.90;;;1.90;99.90;;;;;;5082396;28;20169;-71
2024/01/14 08:10:01;;;;;;;1999.90;999.90;;;2.00;99.90;;;;;;5081443;28;20028;-71
2024/01/14 08:12:26;;;;;;;1999.90;999.90;;;2.10;99.90;;;;;;5082405;28;20036;-72
2024/01/14 08:14:52;;;;;;;1999.90;999.90;;;2.20;99.90;;;;;;5084569;28;20036;-71
2024/01/14 08:17:18;;;;;;;1999.90;999.90;;;2.20;99.90;;;;;;5091604;28;20028;-71
2024/01/14 08:19:44;;;;;;;1999.90;999.90;;;2.30;99.90;;;;;;5091071;28;20078;-71
2024/01/14 08:22:10;;;;;;;1999.90;999.90;;;2.30;99.90;;;;;;5090166;28;20081;-71
2024/01/14 08:24:35;;;;;;;1999.90;999.90;;;2.30;99.90;;;;;;5089373;28;20043;-71
2024/01/14 08:27:01;;;;;;;1999.90;999.90;;;2.40;99.90;;;;;;5090121;28;20028;-71
2024/01/14 08:29:28;;;;;;;1999.90;999.90;;;2.40;99.90;;;;;;5088433;28;20477;-71
2024/01/14 08:31:53;;;;;;;1999.90;999.90;;;2.40;99.90;;;;;;5080106;28;20090;-71
2024/01/14 08:34:19;;;;;;;1999.90;999.90;;;2.40;99.90;;;;;;5087734;28;20032;-71
2024/01/14 08:36:45;;;;;;;1999.90;999.90;;;2.40;99.90;;;;;;5089229;28;20028;-70
2024/01/14 08:39:11;;;;;;;1999.90;999.90;;;2.40;99.90;;;;;;5089321;28;20028;-71
2024/01/14 08:41:36;;;;;;;1999.90;999.90;;;2.50;99.90;;;;;;5079008;28;20063;-71
2024/01/14 08:44:06;;;;;;;1999.90;999.90;;;2.50;99.90;;;;;;5089147;28;20020;-71
2024/01/14 08:46:33;;;;;;;1999.90;999.90;;;2.50;99.90;;;;;;5086641;28;20035;-71
2024/01/14 08:48:59;;;;;;;1999.90;999.90;;;2.50;99.90;;;;;;5059429;28;20032;-71
2024/01/14 08:51:25;;;;;;;1999.90;999.90;;;2.60;99.90;;;;;;5062013;28;20016;-71
2024/01/14 08:53:50;;;;;;;1999.90;999.90;;;2.60;99.90;;;;;;5085797;28;20482;-70
2024/01/14 08:56:16;;;;;;;1999.90;999.90;;;2.60;99.90;;;;;;5072736;28;20024;-70
2024/01/14 08:58:42;;;;;;;1999.90;999.90;;;2.60;99.90;;;;;;5083491;28;20106;-70
2024/01/14 09:01:07;;;;;;;1999.90;999.90;;;2.60;99.90;;;;;;5086174;28;20013;-71
2024/01/14 09:03:34;;;;;;;1999.90;999.90;;;2.60;99.90;;;;;;5088452;28;20096;-71
2024/01/14 09:05:59;;;;;;;1999.90;999.90;;;2.70;99.90;;;;;;5080091;28;20020;-71
2024/01/14 09:08:25;;;;;;;1999.90;999.90;;;2.80;99.90;;;;;;5079320;28;20052;-71
2024/01/14 09:10:51;;;;;;;1999.90;999.90;;;2.80;99.90;;;;;;5090274;28;20113;-71
2024/01/14 09:13:17;;;;;;;1999.90;999.90;;;2.90;99.90;;;;;;5086620;28;20068;-70
2024/01/14 09:15:43;;;;;;;1999.90;999.90;;;2.90;99.90;;;;;;5063006;28;20027;-71
2024/01/14 09:18:08;;;;;;;1999.90;999.90;;;3.00;99.90;;;;;;5086214;28;20036;-70
2024/01/14 09:20:34;;;;;;;1999.90;999.90;;;3.00;99.90;;;;;;5092800;28;20031;-71
2024/01/14 09:23:00;;;;;;;1999.90;999.90;;;3.00;99.90;;;;;;5094346;28;20784;-71
2024/01/14 09:25:25;;;;;;;1999.90;999.90;;;3.10;99.90;;;;;;5087465;28;20063;-71
2024/01/14 09:27:52;;;;;;;1999.90;999.90;;;3.10;99.90;;;;;;5093145;28;20028;-71
2024/01/14 09:30:18;;;;;;;1999.90;999.90;;;3.20;99.90;;;;;;5088716;28;20017;-71
2024/01/14 09:32:43;;;;;;;1999.90;999.90;;;3.20;99.90;;;;;;5073607;28;20044;-71
2024/01/14 09:35:09;;;;;;;1999.90;999.90;;;3.20;99.90;;;;;;5094563;28;20487;-71
2024/01/14 09:37:35;;;;;;;1999.90;999.90;;;3.30;99.90;;;;;;5092571;28;20119;-70
2024/01/14 09:40:00;;;;;;;1999.90;999.90;;;3.30;99.90;;;;;;5089571;28;20039;-71
2024/01/14 09:42:34;;;;;;;1999.90;999.90;;;3.30;99.90;;;;;;5084576;28;20068;-71
2024/01/14 09:45:00;;;;;;;1999.90;999.90;;;3.30;99.90;;;;;;5090676;28;20111;-71
2024/01/14 09:47:27;;;;;;;1999.90;999.90;;;3.40;99.90;;;;;;5073206;28;20055;-72
2024/01/14 09:49:58;;;;;;;1999.90;999.90;;;3.40;99.90;;;;;;5088415;28;20374;-71
2024/01/14 09:52:24;;;;;;;1999.90;999.90;;;3.40;99.90;;;;;;5073156;28;20296;-71
2024/01/14 09:54:51;;;;;;;1999.90;999.90;;;3.40;99.90;;;;;;5091161;28;20034;-71
2024/01/14 09:57:23;;;;;;;1999.90;999.90;;;3.50;99.90;;;;;;5076422;28;20036;-72
2024/01/14 09:59:50;;;;;;;1999.90;999.90;;;3.50;99.90;;;;;;5086152;28;20043;-71
2024/01/14 10:02:16;;;;;;;;;;;3.50;99.90;;;;;;5086296;28;20095;-71
2024/01/14 10:04:42;;;;;;;1999.90;999.90;;;3.50;99.90;;;;;;5079678;28;19912;-71
2024/01/14 10:07:09;;;;;;;1999.90;999.90;;;3.60;99.90;;;;;;5068924;28;20036;-72
2024/01/14 10:09:35;;;;;;;1999.90;999.90;;;3.60;99.90;;;;;;5093497;28;20028;-72
2024/01/14 10:12:02;;;;;;;1999.90;999.90;;;3.60;99.90;;;;;;5088359;28;20038;-71
2024/01/14 10:14:28;;;;;;;1999.90;999.90;;;3.70;99.90;;;;;;5071342;28;20035;-71
2024/01/14 10:16:57;;;;;;;1999.90;999.90;;;3.70;99.90;;;;;;5087335;28;20402;-71
2024/01/14 10:19:23;;;;;;;1999.90;999.90;;;3.70;99.90;;;;;;5080068;28;20020;-71
2024/01/14 10:21:52;;;;;;;1999.90;999.90;;;3.70;99.90;;;;;;5092187;28;20032;-70
2024/01/14 10:24:19;;;;;;;1999.90;999.90;;;3.70;99.90;;;;;;5087488;28;20085;-70
2024/01/14 10:26:45;;;;;;;1999.90;999.90;;;3.70;99.90;;;;;;5087027;28;20082;-71
2024/01/14 10:29:10;;;;;;;1999.90;999.90;;;3.80;99.90;;;;;;5084821;28;20032;-71
2024/01/14 10:31:36;;;;;;;1999.90;999.90;;;3.80;99.90;;;;;;5092827;28;20052;-71
2024/01/14 10:34:05;;;;;;;1999.90;999.90;;;3.90;99.90;;;;;;5081363;28;20051;-71
2024/01/14 10:36:33;;;;;;;1999.90;999.90;;;3.90;99.90;;;;;;5092965;28;20034;-71
2024/01/14 10:38:59;;;;;;;1999.90;999.90;;;3.90;99.90;;;;;;5069269;28;20028;-72
2024/01/14 10:41:25;;;;;;;1999.90;999.90;;;3.90;99.90;;;;;;5093071;28;20300;-70
2024/01/14 10:43:52;;;;;;;1999.90;999.90;;;3.90;99.90;;;;;;5079355;28;20093;-71
2024/01/14 10:46:18;;;;;;;1999.90;999.90;;;4.00;99.90;;;;;;5090323;28;20036;-71
2024/01/14 10:48:52;;;;;;;1999.90;999.90;;;4.00;99.90;;;;;;5082658;28;20024;-71
2024/01/14 10:51:20;;;;;;;1999.90;999.90;;;4.00;99.90;;;;;;5070439;28;20035;-71
2024/01/14 10:54:35;;;;;;;1999.90;999.90;;;4.10;99.90;;;;;;5077214;28;20089;-70
2024/01/14 10:57:25;;;;;;;1999.90;999.90;;;4.20;99.90;;;;;;4990714;28;20041;-70
2024/01/14 10:59:57;;;;;;;1999.90;999.90;;;4.50;99.90;;;;;;5083096;28;20422;-72
2024/01/14 11:02:27;;;;;;;1999.90;999.90;;;4.50;99.90;;;;;;5087909;28;20028;-70
2024/01/14 11:04:53;;;;;;;1999.90;999.90;;;4.60;99.90;;;;;;5077130;28;20030;-72
2024/01/14 11:07:22;;;;;;;1999.90;999.90;;;4.60;99.90;;;;;;5087761;28;20024;-71
2024/01/14 11:09:49;;;;;;;1999.90;999.90;;;4.60;99.90;;;;;;5085243;28;20024;-71
2024/01/14 11:12:27;;;;;;;1999.90;999.90;;;4.70;99.90;;;;;;5082279;28;20027;-71
2024/01/14 11:15:26;;;;;;;1999.90;999.90;;;4.70;99.90;;;;;;5091283;28;20024;-71
2024/01/14 11:18:07;;;;;;;1999.90;999.90;;;4.60;99.90;;;;;;5082308;28;20062;-71
2024/01/14 11:20:36;;;;;;;1999.90;999.90;;;4.70;99.90;;;;;;5091446;28;20035;-70
2024/01/14 11:23:02;;;;;;;1999.90;999.90;;;4.60;99.90;;;;;;5074609;28;20032;-70
2024/01/14 11:25:35;;;;;;;1999.90;999.90;;;4.60;99.90;;;;;;5072886;28;20031;-71
2024/01/14 11:28:05;;;;;;;1999.90;999.90;;;4.50;99.90;;;;;;5084588;28;20123;-70
2024/01/14 11:30:50;;;;;;;1999.90;999.90;;;4.50;99.90;;;;;;5082217;28;20108;-71
2024/01/14 11:33:40;;;;;;;1999.90;999.90;;;4.40;99.90;;;;;;5087362;28;20042;-71
2024/01/14 11:36:10;;;;;;;1999.90;999.90;;;4.40;99.90;;;;;;5060780;28;20373;-70
2024/01/14 11:38:35;;;;;;;1999.90;999.90;;;4.40;99.90;;;;;;5083451;28;20042;-70
2024/01/14 11:41:21;;;;;;;;;;;4.40;99.90;;;;;;5085597;28;20042;-70
2024/01/14 11:43:46;;;;;;;1999.90;999.90;;;4.40;99.90;;;;;;5082038;28;20395;-70
2024/01/14 11:46:34;;;;;;;1999.90;999.90;;;4.40;99.90;;;;;;5088260;28;20095;-70
2024/01/14 11:49:03;;;;;;;1999.90;999.90;;;4.40;99.90;;;;;;5085846;28;20101;-71
2024/01/14 11:51:31;;;;;;;1999.90;999.90;;;4.40;99.90;;;;;;5089965;28;20418;-71
2024/01/14 11:53:56;;;;;;;1999.90;999.90;;;4.30;99.90;;;;;;5078403;28;20115;-71
2024/01/14 11:56:40;;;;;;;1999.90;999.90;;;4.40;99.90;;;;;;5083310;28;20351;-71
2024/01/14 11:59:07;;;;;;;1999.90;999.90;;;4.30;99.90;;;;;;5085500;28;20122;-71
2024/01/14 12:01:34;;;;;;;1999.90;999.90;;;4.30;99.90;;;;;;5090686;28;20154;-71
2024/01/14 12:04:09;;;;;;;1999.90;999.90;;;4.30;99.90;;;;;;5088242;28;20487;-71
2024/01/14 12:06:43;;;;;;;1999.90;999.90;;;4.30;99.90;;;;;;5083815;28;20035;-71